Terminal Aerodrome Forecast
Issued by NWS Bismarck, ND

Home | Current Version | Previous Version | Text Only | Print | Product List | Glossary Off
Versions: 1 2 3 4 5 6 7 8 9 10 11 12 13 14 15 16

694
FTUS43 KBIS 192323
TAFISN
TAF
KISN 192323Z 2000/2024 19006KT P6SM SKC
     FM200700 11004KT P6SM FEW250
     FM201500 17004KT P6SM SKC=

USA.gov is the U.S. government's official web portal to all federal, state and local government web resources and services.